Time;durP1;ratioP1;P1;durP2;ratioP2;P2;SDS_P1;SDS_P2;PMS_P1;PMS_P2;Temp;Humidity;BMP_temperature;BMP_pressure;BME280_temperature;BME280_humidity;BME280_pressure;Samples;Min_cycle;Max_cycle;Signal;HPM_P1;HPM_P2
2022/04/26 03:36:35;;;;;;;;;;;;;;;11.92;100.00;99709.38;5066190;28;20441;-61
2022/04/26 03:39:00;;;;;;;;;;;;;;;11.92;100.00;99712.06;5071771;28;19912;-61
2022/04/26 03:41:25;;;;;;;;;;;;;;;11.86;100.00;99710.50;5054756;28;19919;-61
2022/04/26 03:43:51;;;;;;;;;;;;;;;11.93;100.00;99711.09;5053432;28;20288;-61
2022/04/26 03:46:16;;;;;;;;;;;;;;;11.94;100.00;99718.19;5053066;28;19959;-61
2022/04/26 03:48:41;;;;;;;;;;;;;;;11.95;100.00;99717.25;5053338;28;19944;-61
2022/04/26 03:51:07;;;;;;;;;;;;;;;11.88;100.00;99710.44;5060910;28;19916;-61
2022/04/26 03:53:33;;;;;;;;;;;;;;;11.83;100.00;99709.75;5073039;28;19966;-61
2022/04/26 03:55:58;;;;;;;;;;;;;;;11.81;100.00;99716.97;5073055;28;19916;-61
2022/04/26 03:58:25;;;;;;;;;;;;;;;11.83;100.00;99704.44;5072937;28;19989;-61
2022/04/26 04:00:50;;;;;;;;;;;;;;;11.80;100.00;99715.22;5072986;28;19912;-61
2022/04/26 04:03:15;;;;;;;;;;;;;;;11.79;100.00;99713.50;5073129;28;19916;-61
2022/04/26 04:05:42;;;;;;;;;;;;;;;11.77;100.00;99718.91;5073070;28;20279;-62
2022/04/26 04:08:07;;;;;;;;;;;;;;;11.81;100.00;99722.31;5072829;28;19935;-62
2022/04/26 04:10:32;;;;;;;;;;;;;;;11.75;100.00;99727.88;5071949;28;19920;-62
2022/04/26 04:12:58;;;;;;;;;;;;;;;11.74;100.00;99720.81;5071071;28;19959;-62
2022/04/26 04:15:23;;;;;;;;;;;;;;;11.74;100.00;99723.50;5071930;28;20341;-62
2022/04/26 04:17:48;;;;;;;;;;;;;;;11.75;100.00;99717.22;5078311;28;19924;-62
2022/04/26 04:20:15;;;;;;;;;;;;;;;11.74;100.00;99723.50;5072379;28;19917;-62
2022/04/26 04:22:41;;;;;;;;;;;;;;;11.73;100.00;99724.41;5088468;28;20294;-62
2022/04/26 04:25:06;;;;;;;;;;;;;;;11.71;100.00;99736.94;5092822;28;19992;-62
2022/04/26 04:27:32;;;;;;;;;;;;;;;11.70;100.00;99735.19;5092652;28;19947;-62
2022/04/26 04:30:02;;;;;;;;;;;;;;;11.66;100.00;99734.44;5092443;28;20282;-62
2022/04/26 04:32:27;;;;;;;;;;;;;;;11.62;100.00;99726.63;5089837;28;20339;-62
2022/04/26 04:34:52;;;;;;;;;;;;;;;11.57;100.00;99737.47;5092584;28;19963;-61
2022/04/26 04:37:18;;;;;;;;;;;;;;;11.47;100.00;99729.91;5073827;28;20326;-61
2022/04/26 04:39:43;;;;;;;;;;;;;;;11.38;100.00;99736.47;5072048;28;20010;-61
2022/04/26 04:42:08;;;;;;;;;;;;;;;11.39;100.00;99743.53;5072297;28;19923;-61
2022/04/26 04:44:33;;;;;;;;;;;;;;;11.38;100.00;99746.28;5072367;28;19920;-61
2022/04/26 04:47:00;;;;;;;;;;;;;;;11.39;100.00;99745.34;5072192;28;20002;-61
2022/04/26 04:49:25;;;;;;;;;;;;;;;11.37;100.00;99757.84;5072091;28;19915;-62
2022/04/26 04:51:50;;;;;;;;;;;;;;;11.35;100.00;99767.72;5072165;28;19912;-61
2022/04/26 04:54:16;;;;;;;;;;;;;;;11.30;100.00;99764.34;5072116;28;19919;-61
2022/04/26 04:56:41;;;;;;;;;;;;;;;11.33;100.00;99766.88;5072255;28;20014;-61
2022/04/26 04:59:07;;;;;;;;;;;;;;;11.33;100.00;99770.44;5071821;28;19941;-61
2022/04/26 05:01:32;;;;;;;;;;;;;;;11.33;100.00;99769.56;5071948;28;20337;-61
2022/04/26 05:03:57;;;;;;;;;;;;;;;11.35;100.00;99770.38;5071994;28;19908;-61
2022/04/26 05:06:23;;;;;;;;;;;;;;;11.36;100.00;99778.28;5071973;28;19931;-61
2022/04/26 05:08:48;;;;;;;;;;;;;;;11.38;100.00;99781.72;5071841;28;19919;-61
2022/04/26 05:11:14;;;;;;;;;;;;;;;11.40;100.00;99784.38;5072134;28;19931;-61
2022/04/26 05:13:39;;;;;;;;;;;;;;;11.43;100.00;99789.56;5071724;28;19916;-61
2022/04/26 05:16:05;;;;;;;;;;;;;;;11.44;100.00;99791.28;5072007;28;20326;-61
2022/04/26 05:18:30;;;;;;;;;;;;;;;11.43;100.00;99785.09;5061465;28;19936;-61
2022/04/26 05:20:55;;;;;;;;;;;;;;;11.45;100.00;99785.06;5053250;28;20331;-61
2022/04/26 05:26:04;;;;;;;;;;;;;;;11.44;100.00;99789.50;5071877;28;19931;-61
2022/04/26 05:28:30;;;;;;;;;;;;;;;11.46;100.00;99789.44;5071674;28;19912;-61
2022/04/26 05:30:55;;;;;;;;;;;;;;;11.50;100.00;99793.69;5073410;28;19912;-61
2022/04/26 05:33:21;;;;;;;;;;;;;;;11.53;100.00;99786.47;5074429;28;19908;-61
2022/04/26 05:35:47;;;;;;;;;;;;;;;11.55;100.00;99791.72;5080577;28;19908;-61
2022/04/26 05:38:13;;;;;;;;;;;;;;;11.60;100.00;99798.59;5092985;28;20387;-61
2022/04/26 05:40:38;;;;;;;;;;;;;;;11.62;100.00;99799.41;5095782;28;20011;-61
2022/04/26 05:43:03;;;;;;;;;;;;;;;11.72;100.00;99802.59;5092475;28;20387;-61
2022/04/26 05:45:28;;;;;;;;;;;;;;;11.81;100.00;99802.25;5095824;28;20010;-61
2022/04/26 05:47:54;;;;;;;;;;;;;;;11.87;100.00;99799.31;5095795;28;19912;-61
2022/04/26 05:50:19;;;;;;;;;;;;;;;11.97;100.00;99808.69;5095992;28;19916;-61
2022/04/26 05:52:45;;;;;;;;;;;;;;;12.09;100.00;99813.50;5095770;28;19908;-61
2022/04/26 05:55:10;;;;;;;;;;;;;;;12.16;100.00;99817.63;5095842;28;19908;-61
2022/04/26 05:57:36;;;;;;;;;;;;;;;12.16;100.00;99814.97;5095165;28;19908;-61
2022/04/26 06:00:04;;;;;;;;;;;;;;;12.22;100.00;99820.06;5095650;28;19930;-61
2022/04/26 06:02:29;;;;;;;;;;;;;;;12.26;100.00;99820.75;5092076;28;20662;-61
2022/04/26 06:04:54;;;;;;;;;;;;;;;12.31;100.00;99822.31;5083788;28;19920;-62
2022/04/26 06:07:20;;;;;;;;;;;;;;;12.36;100.00;99822.97;5084174;28;20278;-61
2022/04/26 06:09:46;;;;;;;;;;;;;;;12.43;100.00;99816.47;5094631;28;19917;-62
2022/04/26 06:12:12;;;;;;;;;;;;;;;12.51;100.00;99822.31;5073339;28;20433;-62
2022/04/26 06:14:37;;;;;;;;;;;;;;;12.54;100.00;99832.88;5085855;28;19912;-62
2022/04/26 06:17:03;;;;;;;;;;;;;;;12.63;100.00;99829.81;5100930;28;19908;-62
2022/04/26 06:19:28;;;;;;;;;;;;;;;12.69;100.00;99829.53;5093259;28;19911;-61
2022/04/26 06:21:53;;;;;;;;;;;;;;;12.79;100.00;99822.84;5110724;28;20021;-61
2022/04/26 06:24:19;;;;;;;;;;;;;;;12.85;100.00;99838.59;5092665;28;19908;-61
2022/04/26 06:26:44;;;;;;;;;;;;;;;12.91;100.00;99832.13;5090370;28;19919;-61
2022/04/26 06:29:09;;;;;;;;;;;;;;;13.03;100.00;99828.94;5092085;28;19919;-61
2022/04/26 06:31:35;;;;;;;;;;;;;;;13.09;100.00;99824.19;5091908;28;19992;-61
2022/04/26 06:34:00;;;;;;;;;;;;;;;13.11;100.00;99827.63;5092496;28;19914;-61
2022/04/26 06:36:25;;;;;;;;;;;;;;;13.07;100.00;99833.19;5092963;28;19912;-61
2022/04/26 06:38:50;;;;;;;;;;;;;;;13.15;100.00;99831.03;5092825;28;19908;-61
2022/04/26 06:41:16;;;;;;;;;;;;;;;13.20;100.00;99835.22;5093073;28;19916;-62
2022/04/26 06:43:41;;;;;;;;;;;;;;;13.33;100.00;99832.00;5093103;28;19912;-62
2022/04/26 06:46:06;;;;;;;;;;;;;;;13.54;100.00;99839.00;5092604;28;20424;-62
2022/04/26 06:48:32;;;;;;;;;;;;;;;13.63;100.00;99839.41;5074402;28;19951;-62
2022/04/26 06:50:57;;;;;;;;;;;;;;;13.60;99.76;99828.88;5079490;28;19912;-62
2022/04/26 06:53:23;;;;;;;;;;;;;;;13.52;97.60;99825.72;5089719;28;19915;-62
2022/04/26 06:55:48;;;;;;;;;;;;;;;13.61;96.14;99835.06;5073125;28;19923;-62
2022/04/26 06:58:13;;;;;;;;;;;;;;;13.77;95.34;99836.09;5076663;28;19912;-62
2022/04/26 07:00:39;;;;;;;;;;;;;;;14.16;93.84;99836.81;5085706;28;19920;-62
2022/04/26 07:03:04;;;;;;;;;;;;;;;14.67;91.22;99844.03;5091718;28;19912;-62
2022/04/26 07:05:30;;;;;;;;;;;;;;;15.01;85.95;99825.22;5091645;28;19908;-62
2022/04/26 07:07:55;;;;;;;;;;;;;;;15.45;80.84;99821.88;5092947;28;19951;-62
2022/04/26 07:10:22;;;;;;;;;;;;;;;15.83;77.19;99827.81;5093881;28;19908;-62
2022/04/26 07:12:47;;;;;;;;;;;;;;;16.04;74.15;99821.19;5093710;28;20260;-62
2022/04/26 07:15:12;;;;;;;;;;;;;;;16.52;75.57;99822.84;5093533;28;19914;-62
2022/04/26 07:17:39;;;;;;;;;;;;;;;16.84;73.38;99819.94;5092562;28;20253;-61
2022/04/26 07:20:05;;;;;;;;;;;;;;;16.73;70.68;99826.94;5091748;28;19919;-61
2022/04/26 07:22:32;;;;;;;;;;;;;;;16.66;70.13;99830.94;5093481;28;19969;-61
2022/04/26 07:24:57;;;;;;;;;;;;;;;17.03;69.08;99827.75;5094232;28;19965;-61
2022/04/26 07:27:22;;;;;;;;;;;;;;;17.35;69.22;99825.75;5079472;28;19984;-62
2022/04/26 07:29:48;;;;;;;;;;;;;;;17.92;67.19;99830.94;5059085;28;19908;-62
2022/04/26 07:32:13;;;;;;;;;;;;;;;18.59;64.58;99831.88;5073347;28;19953;-62
2022/04/26 07:34:39;;;;;;;;;;;;;;;18.76;60.75;99831.59;5072658;28;19912;-62
2022/04/26 07:37:05;;;;;;;;;;;;;;;19.16;58.82;99836.78;5071547;28;19908;-62
2022/04/26 07:39:30;;;;;;;;;;;;;;;18.87;56.49;99834.41;5067866;28;20410;-62
2022/04/26 07:41:56;;;;;;;;;;;;;;;18.95;58.41;99832.03;5051928;28;20007;-62
2022/04/26 07:44:21;;;;;;;;;;;;;;;19.16;58.77;99838.63;5051675;28;19912;-62
2022/04/26 07:46:48;;;;;;;;;;;;;;;19.50;57.80;99835.28;5051752;28;19909;-62
2022/04/26 07:49:13;;;;;;;;;;;;;;;19.50;56.52;99840.69;5055033;28;19931;-62
2022/04/26 07:51:39;;;;;;;;;;;;;;;18.93;56.54;99845.63;5053002;28;19913;-62
2022/04/26 07:54:06;;;;;;;;;;;;;;;18.71;58.64;99856.16;5053127;28;20360;-61
2022/04/26 07:56:31;;;;;;;;;;;;;;;19.14;59.75;99852.19;5052706;28;19909;-61
2022/04/26 07:58:58;;;;;;;;;;;;;;;19.34;56.13;99867.03;5052728;28;19990;-62
2022/04/26 08:01:23;;;;;;;;;;;;;;;19.53;55.64;99859.34;5052599;28;19917;-62
2022/04/26 08:03:49;;;;;;;;;;;;;;;19.23;55.12;99870.44;5071611;28;19912;-62
2022/04/26 08:06:14;;;;;;;;;;;;;;;19.27;52.18;99863.00;5072083;28;20376;-62
2022/04/26 08:08:39;;;;;;;;;;;;;;;19.65;54.53;99866.56;5071493;28;19908;-62
2022/04/26 08:11:05;;;;;;;;;;;;;;;19.88;51.46;99871.19;5072571;28;20516;-62
2022/04/26 08:13:30;;;;;;;;;;;;;;;19.75;52.76;99878.44;5072631;28;20335;-62
2022/04/26 08:15:55;;;;;;;;;;;;;;;20.22;54.45;99880.38;5072544;28;19920;-62
2022/04/26 08:18:22;;;;;;;;;;;;;;;20.76;52.22;99877.09;5072423;28;20010;-62
2022/04/26 08:20:48;;;;;;;;;;;;;;;21.09;50.66;99875.53;5073290;28;19912;-62
2022/04/26 08:23:13;;;;;;;;;;;;;;;21.12;49.24;99891.50;5092266;28;19962;-62
2022/04/26 08:28:22;;;;;;;;;;;;;;;20.18;51.36;99897.81;5091865;28;20094;-62
2022/04/26 08:30:48;;;;;;;;;;;;;;;20.30;51.74;99908.56;5091941;28;20018;-62
2022/04/26 08:33:13;;;;;;;;;;;;;;;20.38;51.73;99911.53;5092031;28;19912;-62
2022/04/26 08:35:38;;;;;;;;;;;;;;;20.32;54.69;99913.84;5088618;28;19951;-62
2022/04/26 08:38:04;;;;;;;;;;;;;;;20.20;54.79;99912.91;5091662;28;19912;-62
2022/04/26 08:40:29;;;;;;;;;;;;;;;20.17;56.55;99913.13;5091537;28;19914;-62
2022/04/26 08:42:54;;;;;;;;;;;;;;;19.76;54.87;99912.53;5090351;28;19912;-62
2022/04/26 08:45:20;;;;;;;;;;;;;;;20.29;55.94;99920.34;5090362;28;20371;-62
2022/04/26 08:53:15;;;;;;;;;;;;;;;20.76;56.18;99924.88;5090471;28;20263;-61
2022/04/26 08:55:41;;;;;;;;;;;;;;;21.22;52.85;99922.28;5090391;28;20326;-61
2022/04/26 08:58:08;;;;;;;;;;;;;;;20.21;52.41;99929.97;5091143;28;19908;-61
2022/04/26 09:00:33;;;;;;;;;;;;;;;19.75;54.69;99931.53;5091494;28;19920;-61
2022/04/26 09:03:03;;;;;;;;;;;;;;;19.33;56.92;99941.69;5091579;28;19923;-61
2022/04/26 09:05:29;;;;;;;;;;;;;;;19.64;56.72;99930.47;5087758;28;19916;-61
2022/04/26 09:07:54;;;;;;;;;;;;;;;19.73;56.57;99928.09;5070889;28;19908;-61
2022/04/26 09:10:19;;;;;;;;;;;;;;;19.43;54.21;99932.00;5070029;28;20001;-61
2022/04/26 09:13:15;;;;;;;;;;;;;;;18.75;58.06;99934.94;5071216;28;19909;-61
2022/04/26 09:15:41;;;;;;;;;;;;;;;19.59;55.70;99932.63;5071241;28;19908;-61
2022/04/26 09:18:20;;;;;;;;;;;;;;;20.30;55.20;99930.16;5070557;28;19912;-61
2022/04/26 09:20:46;;;;;;;;;;;;;;;20.29;52.18;99931.16;5065718;28;152157;-61
2022/04/26 09:23:16;;;;;;;;;;;;;;;20.01;54.10;99923.31;5074624;28;20391;-61
2022/04/26 09:25:42;;;;;;;;;;;;;;;19.89;54.46;99926.88;5081181;28;20267;-61
2022/04/26 09:28:08;;;;;;;;;;;;;;;20.75;52.52;99921.34;5074151;28;20021;-61
2022/04/26 09:30:33;;;;;;;;;;;;;;;21.13;51.82;99931.97;5074412;28;19908;-61
2022/04/26 09:32:58;;;;;;;;;;;;;;;21.52;49.07;99923.44;5071710;28;19935;-62
2022/04/26 09:35:24;;;;;;;;;;;;;;;22.33;49.05;99931.34;5074510;28;19912;-62
2022/04/26 09:37:50;;;;;;;;;;;;;;;22.78;47.08;99923.00;5091199;28;19908;-62
2022/04/26 09:40:17;;;;;;;;;;;;;;;23.17;44.70;99930.47;5090630;28;20295;-62
2022/04/26 09:42:43;;;;;;;;;;;;;;;22.05;45.88;99933.59;5088539;28;19951;-62
2022/04/26 09:45:09;;;;;;;;;;;;;;;22.14;45.90;99932.00;5091876;28;20176;-62
2022/04/26 09:47:37;;;;;;;;;;;;;;;22.73;43.05;99936.09;5091878;28;19931;-62
2022/04/26 09:50:13;;;;;;;;;;;;;;;22.88;43.43;99923.09;5092052;28;19930;-62
2022/04/26 09:52:39;;;;;;;;;;;;;;;23.11;44.85;99919.28;5092011;28;20402;-62
2022/04/26 09:55:08;;;;;;;;;;;;;;;23.48;43.72;99927.84;5091520;28;19908;-62
2022/04/26 09:57:34;;;;;;;;;;;;;;;24.02;44.14;99928.47;5089593;28;20333;-62
2022/04/26 10:00:00;;;;;;;;;;;;;;;23.93;43.67;99934.69;5075630;28;19924;-62
2022/04/26 10:02:30;;;;;;;;;;;;;;;23.40;43.19;99931.22;5070023;28;20431;-62
2022/04/26 10:04:55;;;;;;;;;;;;;;;23.30;43.88;99947.47;5070090;28;19908;-62
2022/04/26 10:07:22;;;;;;;;;;;;;;;23.52;43.90;99937.44;5088836;28;19908;-62
2022/04/26 10:09:48;;;;;;;;;;;;;;;22.65;43.92;99943.97;5090230;28;19935;-62
2022/04/26 10:12:14;;;;;;;;;;;;;;;21.57;48.19;99937.47;5090011;28;20473;-62
2022/04/26 10:14:40;;;;;;;;;;;;;;;21.97;48.24;99936.06;5091265;28;20023;-62
2022/04/26 10:17:05;;;;;;;;;;;;;;;22.34;45.11;99936.63;5091457;28;20334;-62
2022/04/26 10:19:38;;;;;;;;;;;;;;;23.26;45.01;99940.56;5091432;28;20399;-62
2022/04/26 10:22:03;;;;;;;;;;;;;;;23.17;44.84;99935.91;5094681;28;19920;-62
2022/04/26 10:24:28;;;;;;;;;;;;;;;23.58;48.17;99939.63;5082489;28;20491;-62
2022/04/26 10:27:14;;;;;;;;;;;;;;;23.37;45.71;99942.34;5074627;28;19913;-62
2022/04/26 10:29:43;;;;;;;;;;;;;;;22.72;45.50;99956.03;5074695;28;20003;-62
2022/04/26 10:32:10;;;;;;;;;;;;;;;22.80;42.37;99948.13;5074750;28;19912;-62
2022/04/26 10:34:36;;;;;;;;;;;;;;;22.89;44.56;99952.78;5074196;28;19958;-62
2022/04/26 10:37:08;;;;;;;;;;;;;;;22.53;45.17;99949.56;5074387;28;19908;-62
2022/04/26 10:39:37;;;;;;;;;;;;;;;21.89;46.30;99948.50;5074708;28;20355;-62
2022/04/26 10:42:25;;;;;;;;;;;;;;;21.65;46.59;99961.22;5061050;28;20268;-62
2022/04/26 10:44:56;;;;;;;;;;;;;;;21.55;48.35;99949.38;5054521;28;19920;-62
2022/04/26 10:47:22;;;;;;;;;;;;;;;21.49;47.25;99963.41;5054334;28;19917;-62
2022/04/26 10:49:48;;;;;;;;;;;;;;;20.98;47.22;99953.91;5054116;28;19909;-62
2022/04/26 10:52:14;;;;;;;;;;;;;;;21.48;49.12;99959.84;5054209;28;19908;-62
2022/04/26 10:54:48;;;;;;;;;;;;;;;21.94;48.65;99957.13;5054293;28;20316;-62
2022/04/26 10:57:14;;;;;;;;;;;;;;;21.82;45.13;99964.38;5054151;28;19963;-62
2022/04/26 10:59:40;;;;;;;;;;;;;;;21.72;44.30;99962.47;5054062;28;20346;-62
2022/04/26 11:02:09;;;;;;;;;;;;;;;22.16;44.81;99966.09;5053417;28;19912;-62
2022/04/26 11:04:34;;;;;;;;;;;;;;;22.32;44.64;99973.84;5052722;28;19966;-62
2022/04/26 11:07:09;;;;;;;;;;;;;;;21.94;44.57;99966.09;5069780;28;19912;-62
2022/04/26 11:09:36;;;;;;;;;;;;;;;21.59;44.20;99964.41;5073923;28;19915;-62
2022/04/26 11:12:02;;;;;;;;;;;;;;;22.36;43.47;99963.59;5074043;28;20347;-62
2022/04/26 11:14:28;;;;;;;;;;;;;;;22.58;41.50;99969.91;5074066;28;19912;-62
2022/04/26 11:16:57;;;;;;;;;;;;;;;21.46;42.64;99972.66;5080028;28;19919;-62
2022/04/26 11:19:30;;;;;;;;;;;;;;;20.49;48.21;99979.16;5094174;28;20359;-62
2022/04/26 11:21:55;;;;;;;;;;;;;;;19.86;51.28;99973.00;5093714;28;19916;-62
2022/04/26 11:29:52;;;;;;;;;;;;;;;22.98;45.21;99972.88;5053841;28;20276;-62
2022/04/26 11:32:28;;;;;;;;;;;;;;;24.02;42.74;99961.09;5052778;28;19908;-62
2022/04/26 11:34:53;;;;;;;;;;;;;;;24.43;41.26;99960.97;5053628;28;19917;-62
2022/04/26 11:37:18;;;;;;;;;;;;;;;23.34;41.26;99969.78;5071923;28;20326;-62
2022/04/26 11:39:43;;;;;;;;;;;;;;;22.29;43.24;99974.09;5070086;28;20010;-62
2022/04/26 11:42:10;;;;;;;;;;;;;;;22.25;44.99;99983.47;5053285;28;19995;-62
2022/04/26 11:44:37;;;;;;;;;;;;;;;23.02;42.97;99979.75;5053573;28;19909;-62
2022/04/26 11:47:02;;;;;;;;;;;;;;;23.67;40.59;99994.03;5053482;28;20284;-62
2022/04/26 11:49:40;;;;;;;;;;;;;;;23.86;39.14;99990.53;5058348;28;19908;-62
2022/04/26 11:52:06;;;;;;;;;;;;;;;24.34;41.28;99994.41;5072871;28;19908;-62
2022/04/26 11:54:37;;;;;;;;;;;;;;;24.32;41.24;99993.66;5073264;28;19919;-62
2022/04/26 11:57:04;;;;;;;;;;;;;;;23.85;40.89;100005.13;5073102;28;19915;-62
2022/04/26 11:59:29;;;;;;;;;;;;;;;22.95;42.04;100005.66;5072980;28;20364;-62
2022/04/26 12:01:54;;;;;;;;;;;;;;;22.31;43.74;100010.06;5072773;28;19919;-62
2022/04/26 12:04:20;;;;;;;;;;;;;;;21.62;44.83;100016.47;5072978;28;19916;-62
2022/04/26 12:06:45;;;;;;;;;;;;;;;20.72;43.86;100035.09;5071883;28;19912;-62
2022/04/26 12:09:15;;;;;;;;;;;;;;;19.93;44.96;100046.31;5055100;28;20291;-62
2022/04/26 12:11:41;;;;;;;;;;;;;;;19.28;45.37;100064.31;5053160;28;20362;-62
2022/04/26 12:14:17;;;;;;;;;;;;;;;18.79;46.90;100060.44;5066277;28;20019;-61
2022/04/26 12:16:47;;;;;;;;;;;;;;;18.05;53.76;100068.78;5077642;28;19930;-61
2022/04/26 12:19:12;;;;;;;;;;;;;;;17.41;58.24;100073.63;5092803;28;19908;-61
2022/04/26 12:21:43;;;;;;;;;;;;;;;17.04;63.74;100076.72;5092501;28;19922;-61
2022/04/26 12:24:21;;;;;;;;;;;;;;;16.69;64.17;100070.66;5090137;28;19916;-61
2022/04/26 12:26:52;;;;;;;;;;;;;;;16.56;69.09;100077.69;5072481;28;20264;-61
2022/04/26 12:29:17;;;;;;;;;;;;;;;16.53;73.33;100071.63;5072567;28;19920;-61
2022/04/26 12:31:44;;;;;;;;;;;;;;;16.84;74.23;100059.06;5072024;28;19912;-61
2022/04/26 12:34:14;;;;;;;;;;;;;;;17.37;76.03;100063.97;5072140;28;19923;-61
2022/04/26 12:36:48;;;;;;;;;;;;;;;18.30;70.84;100062.72;5072495;28;19912;-61
2022/04/26 12:39:14;;;;;;;;;;;;;;;18.79;64.68;100057.75;5072247;28;20391;-62
2022/04/26 12:41:48;;;;;;;;;;;;;;;19.13;64.44;100065.34;5072279;28;19916;-62
2022/04/26 12:44:14;;;;;;;;;;;;;;;19.07;60.73;100063.06;5071817;28;19908;-62
2022/04/26 12:46:46;;;;;;;;;;;;;;;18.99;61.87;100068.97;5072180;28;20268;-62
2022/04/26 12:51:55;;;;;;;;;;;;;;;18.43;61.95;100073.59;5072326;28;19915;-62
2022/04/26 12:54:20;;;;;;;;;;;;;;;18.22;60.77;100068.56;5072143;28;19909;-62
2022/04/26 12:56:59;;;;;;;;;;;;;;;18.18;63.64;100075.13;5071853;28;19908;-62
2022/04/26 12:59:32;;;;;;;;;;;;;;;18.23;65.75;100070.31;5072207;28;19915;-62
2022/04/26 13:01:58;;;;;;;;;;;;;;;18.19;63.48;100066.06;5072132;28;20292;-62
2022/04/26 13:04:23;;;;;;;;;;;;;;;18.36;62.58;100060.50;5072065;28;19912;-62
2022/04/26 13:06:48;;;;;;;;;;;;;;;18.48;58.45;100068.78;5071843;28;20368;-62
2022/04/26 13:09:14;;;;;;;;;;;;;;;18.47;59.97;100061.69;5071904;28;19912;-62
2022/04/26 13:11:39;;;;;;;;;;;;;;;18.69;59.58;100060.19;5071994;28;20394;-62
2022/04/26 13:14:04;;;;;;;;;;;;;;;18.92;55.13;100064.94;5072278;28;19916;-62
2022/04/26 13:16:29;;;;;;;;;;;;;;;19.78;55.58;100060.88;5075023;28;19969;-62
2022/04/26 13:18:55;;;;;;;;;;;;;;;20.47;55.71;100051.41;5091979;28;19912;-62
2022/04/26 13:21:20;;;;;;;;;;;;;;;20.87;52.70;100049.34;5087033;28;19934;-62
2022/04/26 13:23:45;;;;;;;;;;;;;;;21.55;51.61;100044.13;5092221;28;19961;-62
2022/04/26 13:26:11;;;;;;;;;;;;;;;21.70;49.15;100040.25;5091825;28;19916;-62
2022/04/26 13:28:36;;;;;;;;;;;;;;;21.78;50.97;100051.38;5092249;28;19957;-62
2022/04/26 13:31:01;;;;;;;;;;;;;;;21.87;45.45;100043.41;5090893;28;20284;-62
2022/04/26 13:33:27;;;;;;;;;;;;;;;22.09;46.27;100040.72;5088774;28;19914;-62
2022/04/26 13:35:53;;;;;;;;;;;;;;;22.10;46.96;100049.72;5090306;28;19908;-62
2022/04/26 13:38:20;;;;;;;;;;;;;;;22.09;47.99;100046.13;5090244;28;19953;-62
2022/04/26 13:40:46;;;;;;;;;;;;;;;22.44;46.84;100048.75;5090393;28;19912;-62
2022/04/26 13:43:11;;;;;;;;;;;;;;;22.79;43.80;100043.19;5087154;28;19956;-62
2022/04/26 13:45:36;;;;;;;;;;;;;;;21.95;40.19;100040.09;5090179;28;19914;-62
2022/04/26 13:48:08;;;;;;;;;;;;;;;21.99;41.91;100036.16;5090701;28;20386;-62
2022/04/26 13:50:33;;;;;;;;;;;;;;;21.75;42.40;100038.91;5091882;28;20264;-62
2022/04/26 13:52:59;;;;;;;;;;;;;;;21.70;43.15;100034.81;5091364;28;19908;-62
2022/04/26 13:55:26;;;;;;;;;;;;;;;21.64;43.44;100025.34;5092300;28;19908;-62
2022/04/26 13:57:52;;;;;;;;;;;;;;;21.22;42.83;100038.63;5095566;28;20295;-62
2022/04/26 14:00:18;;;;;;;;;;;;;;;20.75;42.26;100034.88;5095555;28;19916;-62
2022/04/26 14:02:46;;;;;;;;;;;;;;;20.15;41.22;100044.72;5095538;28;19914;-62
2022/04/26 14:05:12;;;;;;;;;;;;;;;19.68;44.41;100049.88;5092366;28;19914;-62
2022/04/26 14:07:38;;;;;;;;;;;;;;;19.51;47.34;100055.56;5095144;28;19916;-62
2022/04/26 14:10:04;;;;;;;;;;;;;;;19.35;49.58;100046.78;5095330;28;19907;-62
2022/04/26 14:12:29;;;;;;;;;;;;;;;19.12;53.06;100050.13;5095317;28;20315;-61
2022/04/26 14:23:06;;;;;;;;;;;;;;;18.48;50.93;100036.47;5095017;28;20287;-61
2022/04/26 14:25:32;;;;;;;;;;;;;;;18.39;53.03;100040.59;5094797;28;19907;-61
2022/04/26 14:27:57;;;;;;;;;;;;;;;18.09;52.42;100035.31;5075755;28;19908;-61
2022/04/26 14:30:22;;;;;;;;;;;;;;;17.94;54.79;100041.63;5074371;28;20000;-61
2022/04/26 14:32:48;;;;;;;;;;;;;;;17.82;53.67;100037.03;5074505;28;19919;-61
2022/04/26 14:35:14;;;;;;;;;;;;;;;17.54;59.38;100031.63;5074565;28;19912;-61
2022/04/26 14:37:41;;;;;;;;;;;;;;;17.27;64.06;100027.84;5071722;28;20510;-61
2022/04/26 14:40:08;;;;;;;;;;;;;;;16.88;67.53;100038.25;5065961;28;19920;-61
2022/04/26 14:42:33;;;;;;;;;;;;;;;16.48;70.71;100046.84;5074539;28;20383;-61
2022/04/26 14:44:59;;;;;;;;;;;;;;;16.31;72.39;100055.78;5074427;28;19916;-61
2022/04/26 14:47:27;;;;;;;;;;;;;;;16.10;74.61;100082.94;5074103;28;19926;-61
2022/04/26 14:49:59;;;;;;;;;;;;;;;15.41;76.10;100099.09;5074693;28;19912;-60
2022/04/26 14:52:24;;;;;;;;;;;;;;;14.53;80.77;100102.56;5074544;28;19915;-60
2022/04/26 14:54:49;;;;;;;;;;;;;;;14.12;84.98;100111.59;5074840;28;19916;-60
2022/04/26 14:57:17;;;;;;;;;;;;;;;13.99;88.27;100136.28;5056324;28;19912;-60
2022/04/26 14:59:46;;;;;;;;;;;;;;;13.75;89.75;100143.59;5074095;28;19970;-60
2022/04/26 15:02:11;;;;;;;;;;;;;;;13.55;92.59;100150.72;5073949;28;20415;-60
2022/04/26 15:04:37;;;;;;;;;;;;;;;13.27;92.69;100136.78;5073795;28;19995;-60
2022/04/26 15:07:02;;;;;;;;;;;;;;;12.64;89.61;100125.06;5073178;28;20307;-60
2022/04/26 15:09:52;;;;;;;;;;;;;;;12.23;88.78;100131.13;5074148;28;19908;-60
2022/04/26 15:17:57;;;;;;;;;;;;;;;12.83;99.92;100123.41;4996663;28;20029;-62
2022/04/26 15:20:25;;;;;;;;;;;;;;;13.15;100.00;100115.00;5092566;28;20504;-62
2022/04/26 15:22:50;;;;;;;;;;;;;;;13.30;96.58;100115.28;5092212;28;19916;-62
2022/04/26 15:25:16;;;;;;;;;;;;;;;13.45;94.70;100109.28;5092782;28;19918;-62
2022/04/26 15:27:41;;;;;;;;;;;;;;;13.58;92.99;100102.47;5062754;28;19913;-62
2022/04/26 15:30:08;;;;;;;;;;;;;;;14.01;96.16;100108.56;5055447;28;19912;-62
2022/04/26 15:32:33;;;;;;;;;;;;;;;14.24;93.92;100111.03;5056043;28;19909;-62
2022/04/26 15:34:59;;;;;;;;;;;;;;;14.23;85.63;100119.16;5053390;28;20423;-62
2022/04/26 15:37:25;;;;;;;;;;;;;;;14.39;89.16;100114.84;5071374;28;19919;-62
2022/04/26 15:39:51;;;;;;;;;;;;;;;14.39;86.82;100110.38;5073003;28;19959;-62
2022/04/26 15:42:18;;;;;;;;;;;;;;;14.40;80.91;100117.44;5073296;28;19908;-62
2022/04/26 15:44:43;;;;;;;;;;;;;;;14.36;83.10;100125.72;5059009;28;19958;-62
2022/04/26 15:47:08;;;;;;;;;;;;;;;14.43;82.07;100121.81;5053289;28;19909;-62
2022/04/26 15:49:34;;;;;;;;;;;;;;;14.66;85.47;100132.31;5053372;28;20385;-62
2022/04/26 15:51:59;;;;;;;;;;;;;;;14.88;86.91;100135.69;5053016;28;20372;-62
2022/04/26 15:54:24;;;;;;;;;;;;;;;15.06;86.58;100140.16;5053382;28;19908;-62
2022/04/26 15:56:50;;;;;;;;;;;;;;;15.22;86.18;100141.13;5053023;28;19912;-62
2022/04/26 15:59:15;;;;;;;;;;;;;;;15.47;86.07;100152.41;5053098;28;20046;-62
2022/04/26 16:01:40;;;;;;;;;;;;;;;15.69;86.31;100157.53;5036064;28;20367;-62
2022/04/26 16:04:06;;;;;;;;;;;;;;;15.56;81.45;100151.94;5062036;28;19916;-63
2022/04/26 16:06:32;;;;;;;;;;;;;;;15.28;75.87;100151.56;5065048;28;19960;-63
2022/04/26 16:20:28;;;;;;;;;;;;;;;15.14;78.58;100148.69;5073028;28;19999;-63
2022/04/26 16:22:38;;;;;;;;;;;;;;;14.58;79.43;100141.63;5087905;28;19964;-62
2022/04/26 16:25:04;;;;;;;;;;;;;;;14.68;80.10;100148.31;5092849;28;19908;-62
2022/04/26 16:27:30;;;;;;;;;;;;;;;14.65;79.58;100160.00;5092619;28;19961;-63
2022/04/26 16:29:55;;;;;;;;;;;;;;;14.73;82.75;100162.34;5093099;28;20295;-63
2022/04/26 16:32:20;;;;;;;;;;;;;;;14.79;85.79;100160.25;5092667;28;20339;-63
2022/04/26 16:34:45;;;;;;;;;;;;;;;14.61;83.88;100162.91;5092821;28;19915;-63
2022/04/26 16:37:11;;;;;;;;;;;;;;;14.65;85.73;100170.72;5092389;28;19995;-63
2022/04/26 16:39:36;;;;;;;;;;;;;;;14.56;87.01;100173.84;5092632;28;19908;-63
2022/04/26 16:42:01;;;;;;;;;;;;;;;14.52;86.69;100175.78;5092323;28;20375;-63
2022/04/26 16:44:26;;;;;;;;;;;;;;;14.46;89.15;100175.19;5092823;28;19908;-63
2022/04/26 16:46:52;;;;;;;;;;;;;;;14.41;91.30;100175.38;5092273;28;19914;-63
2022/04/26 16:49:17;;;;;;;;;;;;;;;14.53;92.96;100181.97;5092553;28;20006;-63
2022/04/26 16:51:42;;;;;;;;;;;;;;;14.72;95.42;100185.56;5092510;28;19961;-63
2022/04/26 16:54:08;;;;;;;;;;;;;;;14.82;95.21;100184.19;5092424;28;19912;-63
2022/04/26 16:56:35;;;;;;;;;;;;;;;14.90;94.60;100170.44;5092184;28;20371;-63